Time;durP1;ratioP1;P1;durP2;ratioP2;P2;SDS_P1;SDS_P2;PMS_P1;PMS_P2;Temp;Humidity;BMP_temperature;BMP_pressure;BME280_temperature;BME280_humidity;BME280_pressure;Samples;Min_cycle;Max_cycle;Signal;HPM_P1;HPM_P2
2023/04/26 00:01:45;;;;;;;5.57;3.88;;;19.30;60.50;;;;;;5032912;28;20074;-57
2023/04/26 00:04:11;;;;;;;4.85;3.20;;;19.50;59.90;;;;;;5033092;28;20383;-55
2023/04/26 00:06:36;;;;;;;6.13;3.47;;;19.60;59.40;;;;;;5031572;28;20103;-59
2023/04/26 00:09:03;;;;;;;6.15;4.03;;;19.80;59.00;;;;;;5030378;28;20026;-57
2023/04/26 00:11:29;;;;;;;6.57;3.47;;;20.00;58.60;;;;;;5039784;28;20036;-58
2023/04/26 00:13:56;;;;;;;6.05;3.90;;;20.10;58.30;;;;;;5036352;28;20042;-52
2023/04/26 00:16:22;;;;;;;6.47;3.25;;;20.30;58.00;;;;;;5033919;28;20041;-60
2023/04/26 00:18:48;;;;;;;6.20;4.07;;;20.40;57.70;;;;;;5032825;28;20526;-56
2023/04/26 00:21:13;;;;;;;5.32;3.58;;;20.50;57.40;;;;;;5034089;28;20072;-56
2023/04/26 00:23:39;;;;;;;5.10;3.45;;;20.60;57.30;;;;;;5032598;28;20075;-55
2023/04/26 00:26:05;;;;;;;6.03;3.55;;;20.70;57.10;;;;;;5034635;28;20032;-53
2023/04/26 00:28:30;;;;;;;6.03;3.20;;;20.80;57.00;;;;;;5035882;28;20538;-59
2023/04/26 00:30:56;;;;;;;4.60;3.22;;;20.90;56.90;;;;;;5031588;28;20577;-53
2023/04/26 00:33:22;;;;;;;5.13;3.17;;;20.90;56.90;;;;;;5033563;28;20033;-57
2023/04/26 00:35:48;;;;;;;6.90;3.28;;;20.90;56.90;;;;;;5030115;28;20483;-53
2023/04/26 00:38:13;;;;;;;7.15;3.60;;;20.90;57.10;;;;;;5031267;28;20036;-57
2023/04/26 00:40:39;;;;;;;5.40;3.05;;;20.80;57.10;;;;;;5034017;28;20029;-54
2023/04/26 00:43:05;;;;;;;5.38;3.55;;;20.80;57.00;;;;;;5030373;28;20052;-57
2023/04/26 00:45:31;;;;;;;4.97;2.90;;;20.80;57.10;;;;;;5030604;28;20026;-55
2023/04/26 00:48:00;;;;;;;5.40;3.17;;;20.70;57.40;;;;;;5035014;28;20075;-52
2023/04/26 00:50:25;;;;;;;5.53;3.15;;;20.60;57.30;;;;;;5032359;28;20095;-56
2023/04/26 00:52:51;;;;;;;4.10;2.75;;;20.60;57.60;;;;;;5037187;28;20047;-58
2023/04/26 00:55:17;;;;;;;4.90;3.10;;;20.50;57.90;;;;;;5033149;28;20036;-57
2023/04/26 00:57:44;;;;;;;5.63;3.13;;;20.50;57.90;;;;;;5030577;28;20037;-57
2023/04/26 01:00:10;;;;;;;4.97;3.38;;;20.40;58.00;;;;;;5033044;28;20029;-58
2023/04/26 01:02:37;;;;;;;5.72;2.60;;;20.40;58.20;;;;;;5033036;28;20039;-57
2023/04/26 01:05:03;;;;;;;4.82;3.03;;;20.30;58.30;;;;;;5030883;28;20430;-61
2023/04/26 01:07:30;;;;;;;3.75;2.60;;;20.30;58.50;;;;;;5031319;28;20040;-56
2023/04/26 01:09:57;;;;;;;3.78;2.53;;;20.30;58.60;;;;;;5036927;28;20041;-57
2023/04/26 01:12:23;;;;;;;3.50;2.90;;;20.20;58.80;;;;;;5033249;28;21546;-57
2023/04/26 01:14:49;;;;;;;4.22;2.67;;;20.20;58.90;;;;;;5035193;28;20041;-58
2023/04/26 01:17:15;;;;;;;4.35;2.60;;;20.10;58.90;;;;;;5032498;28;20035;-60
2023/04/26 01:19:47;;;;;;;3.80;2.58;;;20.10;59.00;;;;;;5030025;28;20387;-56
2023/04/26 01:22:13;;;;;;;4.13;2.65;;;20.10;59.10;;;;;;5031855;28;20578;-58
2023/04/26 01:24:41;;;;;;;4.70;3.10;;;20.00;59.20;;;;;;5029232;28;20141;-56
2023/04/26 01:27:06;;;;;;;3.97;2.60;;;20.00;59.30;;;;;;5028054;28;20041;-55
2023/04/26 01:32:54;;;;;;;4.32;2.10;;;19.90;59.40;;;;;;5028564;28;20067;-56
2023/04/26 01:35:19;;;;;;;4.65;2.85;;;19.90;59.50;;;;;;5030110;28;20045;-58
2023/04/26 01:37:45;;;;;;;5.28;2.95;;;19.90;59.50;;;;;;5030559;28;20500;-58
2023/04/26 01:40:11;;;;;;;4.53;2.60;;;19.80;59.60;;;;;;5031351;28;20029;-55
2023/04/26 01:42:36;;;;;;;4.28;2.67;;;19.80;59.60;;;;;;5031339;28;20503;-55
2023/04/26 01:45:02;;;;;;;2.95;2.20;;;19.80;59.60;;;;;;5031030;28;20045;-56
2023/04/26 01:47:28;;;;;;;3.55;2.50;;;19.80;59.60;;;;;;5028515;28;20041;-60
2023/04/26 01:49:53;;;;;;;3.05;1.85;;;19.70;59.60;;;;;;5034111;28;20044;-58
2023/04/26 01:52:20;;;;;;;4.38;2.45;;;19.70;59.70;;;;;;5028289;28;20033;-57
2023/04/26 01:54:45;;;;;;;3.88;2.60;;;19.70;60.40;;;;;;5030754;28;20049;-53
2023/04/26 01:57:11;;;;;;;4.93;2.75;;;19.70;59.90;;;;;;5029472;28;20033;-56
2023/04/26 01:59:36;;;;;;;3.75;2.50;;;19.60;59.90;;;;;;5030395;28;20088;-53
2023/04/26 02:02:02;;;;;;;4.03;2.75;;;19.60;59.90;;;;;;5031072;28;20072;-55
2023/04/26 02:04:27;;;;;;;3.92;2.55;;;19.60;59.90;;;;;;5029228;28;20498;-58
2023/04/26 02:06:53;;;;;;;3.80;2.28;;;19.50;60.00;;;;;;5030798;28;20042;-56
2023/04/26 02:09:18;;;;;;;3.15;2.08;;;19.50;60.00;;;;;;5033199;28;20045;-54
2023/04/26 02:11:44;;;;;;;4.05;2.25;;;19.50;60.00;;;;;;5032052;28;20524;-58
2023/04/26 02:14:09;;;;;;;3.42;2.25;;;19.40;60.00;;;;;;5030583;28;20090;-52
2023/04/26 02:16:35;;;;;;;3.15;2.10;;;19.40;60.10;;;;;;5031911;28;20056;-57
2023/04/26 02:19:02;;;;;;;3.35;2.10;;;19.40;60.10;;;;;;5038411;28;20033;-57
2023/04/26 02:21:29;;;;;;;3.45;2.08;;;19.40;60.90;;;;;;5031891;28;20411;-55
2023/04/26 02:23:55;;;;;;;3.15;2.17;;;19.40;60.20;;;;;;5032917;28;20068;-59
2023/04/26 02:26:20;;;;;;;2.78;1.90;;;19.30;60.30;;;;;;5032873;28;20095;-58
2023/04/26 02:28:46;;;;;;;3.13;2.13;;;19.30;60.40;;;;;;5029821;28;20037;-54
2023/04/26 02:31:11;;;;;;;3.50;1.98;;;19.20;60.40;;;;;;5030521;28;20621;-57
2023/04/26 02:33:37;;;;;;;2.28;2.05;;;19.20;60.50;;;;;;5028369;28;20029;-59
2023/04/26 02:36:06;;;;;;;2.85;2.03;;;19.20;60.50;;;;;;5032240;28;20033;-55
2023/04/26 02:38:34;;;;;;;2.55;2.00;;;19.20;60.60;;;;;;5029112;28;20026;-57
2023/04/26 02:41:00;;;;;;;3.20;1.90;;;19.20;60.60;;;;;;5024774;28;20447;-58
2023/04/26 02:43:26;;;;;;;2.67;1.73;;;19.10;60.60;;;;;;5031185;28;20112;-56
2023/04/26 02:45:52;;;;;;;2.85;2.10;;;19.10;60.60;;;;;;5027061;28;20112;-53
2023/04/26 02:48:17;;;;;;;2.70;1.92;;;19.10;60.60;;;;;;5034255;28;20032;-54
2023/04/26 02:50:43;;;;;;;3.15;1.88;;;19.10;60.70;;;;;;5033297;28;20352;-55
2023/04/26 02:53:08;;;;;;;2.88;1.77;;;19.10;60.70;;;;;;5030713;28;20033;-52
2023/04/26 02:55:34;;;;;;;2.72;1.80;;;19.10;60.70;;;;;;5029277;28;20517;-61
2023/04/26 02:57:59;;;;;;;2.42;1.67;;;19.10;60.70;;;;;;5029599;28;20034;-57
2023/04/26 03:00:26;;;;;;;2.47;1.80;;;19.00;60.70;;;;;;5031176;28;20478;-54
2023/04/26 03:02:52;;;;;;;2.88;1.92;;;19.00;60.80;;;;;;5030880;28;20038;-58
2023/04/26 03:05:18;;;;;;;3.78;2.05;;;19.00;60.80;;;;;;5035423;28;20460;-57
2023/04/26 03:07:44;;;;;;;2.83;1.95;;;19.00;60.80;;;;;;5033178;28;20064;-58
2023/04/26 03:10:10;;;;;;;1.95;1.45;;;18.90;60.80;;;;;;5032372;28;20112;-57
2023/04/26 03:12:35;;;;;;;2.45;1.85;;;18.90;60.80;;;;;;5029078;28;20047;-58
2023/04/26 03:15:02;;;;;;;3.30;1.83;;;18.90;60.80;;;;;;5030889;28;20132;-56
2023/04/26 03:17:28;;;;;;;4.63;1.92;;;18.90;60.80;;;;;;5032597;28;20113;-58
2023/04/26 03:19:54;;;;;;;3.55;1.73;;;18.90;60.90;;;;;;5025181;28;20100;-58
2023/04/26 03:22:20;;;;;;;2.53;1.58;;;18.80;60.80;;;;;;5027838;28;20413;-57
2023/04/26 03:24:46;;;;;;;2.58;1.77;;;18.90;60.90;;;;;;5030348;28;20029;-53
2023/04/26 03:27:12;;;;;;;2.58;1.40;;;18.80;60.90;;;;;;5031510;28;20037;-52
2023/04/26 03:29:38;;;;;;;2.05;1.38;;;18.80;60.90;;;;;;5029876;28;20029;-50
2023/04/26 03:32:04;;;;;;;2.90;1.88;;;18.80;61.00;;;;;;5028709;28;20164;-57
2023/04/26 03:34:29;;;;;;;2.58;1.67;;;18.80;61.00;;;;;;5029536;28;20386;-55
2023/04/26 03:36:55;;;;;;;2.72;1.80;;;18.80;61.00;;;;;;5031225;28;20138;-57
2023/04/26 03:39:21;;;;;;;2.35;1.35;;;18.80;61.00;;;;;;5029069;28;20037;-58
2023/04/26 03:41:47;;;;;;;2.42;1.58;;;18.80;61.00;;;;;;5025257;28;20091;-57
2023/04/26 03:44:13;;;;;;;2.08;1.23;;;18.70;61.00;;;;;;5036910;28;20030;-54
2023/04/26 03:46:38;;;;;;;2.15;1.63;;;18.70;61.00;;;;;;5036080;28;20382;-54
2023/04/26 03:49:04;;;;;;;3.13;1.38;;;18.70;61.00;;;;;;5031637;28;20036;-53
2023/04/26 03:51:30;;;;;;;1.35;1.25;;;18.80;61.00;;;;;;5034611;28;20430;-54
2023/04/26 03:53:55;;;;;;;4.40;1.48;;;19.00;60.40;;;;;;5035196;28;20533;-57
2023/04/26 03:56:21;;;;;;;2.42;1.30;;;19.30;59.90;;;;;;5035865;28;20029;-57
2023/04/26 03:58:46;;;;;;;2.70;1.50;;;19.50;58.90;;;;;;5031284;28;20033;-56
2023/04/26 04:01:12;;;;;;;1.70;1.25;;;19.80;58.30;;;;;;5034940;28;20075;-55
2023/04/26 04:03:37;;;;;;;2.15;1.00;;;20.10;57.80;;;;;;5035325;28;20033;-56
2023/04/26 04:06:03;;;;;;;2.03;1.70;;;20.30;57.10;;;;;;5045731;23;20133;-65
2023/04/26 04:08:29;;;;;;;2.00;1.33;;;20.60;56.70;;;;;;5012166;28;20057;-65
2023/04/26 04:10:55;;;;;;;1.67;0.80;;;20.70;56.50;;;;;;5019036;28;20057;-66
2023/04/26 04:13:21;;;;;;;1.92;1.30;;;20.90;56.20;;;;;;5019239;28;20037;-68
2023/04/26 04:15:47;;;;;;;1.70;1.05;;;21.00;55.90;;;;;;5017502;28;20037;-67
2023/04/26 04:18:12;;;;;;;1.45;1.15;;;21.20;55.70;;;;;;5019764;28;20040;-64
2023/04/26 04:20:37;;;;;;;1.55;0.93;;;21.30;55.50;;;;;;5023412;28;20052;-65
2023/04/26 04:23:05;;;;;;;2.22;1.40;;;21.40;55.30;;;;;;5022230;28;20088;-64
2023/04/26 04:25:30;;;;;;;3.05;1.15;;;21.40;55.30;;;;;;5020174;28;20030;-66
2023/04/26 04:27:57;;;;;;;1.65;1.08;;;21.50;55.30;;;;;;5016940;28;20057;-68
2023/04/26 04:30:23;;;;;;;2.40;1.63;;;21.50;55.30;;;;;;5017575;28;20472;-69
2023/04/26 04:32:48;;;;;;;2.83;1.27;;;21.50;55.50;;;;;;5016095;28;20022;-67
2023/04/26 04:35:14;;;;;;;2.15;1.00;;;21.40;55.60;;;;;;5015728;28;20467;-68
2023/04/26 04:37:39;;;;;;;1.10;1.00;;;21.30;55.90;;;;;;5017299;28;20038;-66
2023/04/26 04:40:08;;;;;;;2.75;1.13;;;21.30;56.10;;;;;;5016569;28;20021;-66
2023/04/26 04:42:34;;;;;;;2.03;0.90;;;21.20;56.20;;;;;;5018510;28;20025;-67
2023/04/26 04:45:00;;;;;;;2.15;0.90;;;21.20;56.50;;;;;;5019139;28;20030;-68
2023/04/26 04:47:25;;;;;;;1.73;0.90;;;21.10;56.50;;;;;;5017019;28;20566;-67
2023/04/26 04:49:52;;;;;;;1.42;0.90;;;21.00;56.50;;;;;;5019073;28;20585;-66
2023/04/26 04:52:20;;;;;;;2.05;1.08;;;21.00;56.70;;;;;;5019819;28;20507;-68
2023/04/26 04:54:45;;;;;;;1.00;0.68;;;20.90;57.00;;;;;;5016661;28;20034;-68
2023/04/26 04:57:12;;;;;;;0.60;0.60;;;20.80;57.10;;;;;;5016606;28;20056;-67
2023/04/26 04:59:38;;;;;;;1.10;0.90;;;20.80;57.30;;;;;;5015465;28;20026;-66
2023/04/26 05:02:04;;;;;;;1.30;0.88;;;20.70;57.50;;;;;;5015570;28;20041;-67
2023/04/26 05:04:32;;;;;;;1.92;1.10;;;20.70;57.50;;;;;;5014737;28;20404;-67
2023/04/26 05:06:58;;;;;;;1.30;0.90;;;20.70;57.70;;;;;;5020119;28;20037;-67
2023/04/26 05:09:24;;;;;;;2.75;0.95;;;20.60;57.70;;;;;;5017677;28;20080;-67
2023/04/26 05:11:49;;;;;;;1.77;0.73;;;20.50;57.80;;;;;;5018938;28;20099;-66
2023/04/26 05:14:15;;;;;;;1.50;1.13;;;20.50;57.90;;;;;;5021395;28;20043;-66
2023/04/26 05:16:40;;;;;;;1.02;0.73;;;20.50;58.10;;;;;;5020193;28;20504;-67
2023/04/26 05:19:06;;;;;;;1.63;1.05;;;20.40;58.20;;;;;;5018131;28;20484;-68
2023/04/26 05:21:32;;;;;;;1.38;0.93;;;20.40;58.20;;;;;;5021251;28;20052;-65
2023/04/26 05:23:58;;;;;;;1.88;1.05;;;20.40;58.30;;;;;;5018427;28;20049;-66
2023/04/26 05:26:24;;;;;;;2.03;1.15;;;20.30;58.40;;;;;;5017435;28;20040;-65
2023/04/26 05:28:49;;;;;;;0.80;0.63;;;20.30;58.50;;;;;;5015586;28;20469;-67
2023/04/26 05:31:15;;;;;;;1.08;0.80;;;20.30;58.50;;;;;;5014979;28;20030;-66
2023/04/26 05:33:41;;;;;;;0.80;0.80;;;20.30;58.60;;;;;;5013385;28;20026;-65
2023/04/26 05:36:08;;;;;;;2.15;1.10;;;20.30;58.70;;;;;;5015177;28;20126;-67
2023/04/26 05:38:34;;;;;;;1.00;0.90;;;20.20;58.80;;;;;;5016339;28;20137;-67
2023/04/26 05:41:00;;;;;;;1.77;0.98;;;20.20;59.10;;;;;;5018499;28;20480;-66
2023/04/26 05:43:25;;;;;;;2.50;0.95;;;20.20;59.20;;;;;;5013191;28;20041;-66
2023/04/26 05:45:55;;;;;;;1.08;0.90;;;20.20;59.20;;;;;;5015878;28;20044;-66
2023/04/26 05:48:22;;;;;;;1.52;0.88;;;20.20;59.60;;;;;;5020518;28;20492;-67
2023/04/26 05:50:49;;;;;;;1.02;0.82;;;20.10;59.20;;;;;;5020986;28;20036;-67
2023/04/26 05:53:15;;;;;;;1.73;1.10;;;20.10;59.80;;;;;;5018083;28;20029;-66
2023/04/26 05:55:41;;;;;;;0.98;0.85;;;20.10;59.80;;;;;;5015282;28;20042;-67
2023/04/26 05:58:07;;;;;;;1.95;1.05;;;20.10;59.90;;;;;;5015954;28;20448;-67
2023/04/26 06:00:33;;;;;;;1.30;1.10;;;20.10;60.00;;;;;;5012708;28;20029;-66
2023/04/26 06:02:58;;;;;;;1.58;1.10;;;20.00;60.20;;;;;;5019672;28;20032;-67
2023/04/26 06:05:24;;;;;;;1.50;1.13;;;20.00;60.20;;;;;;5011784;28;20034;-66
2023/04/26 06:07:49;;;;;;;1.30;0.88;;;20.00;60.30;;;;;;5018477;28;20094;-64
2023/04/26 06:10:15;;;;;;;1.98;1.30;;;20.00;60.50;;;;;;5013949;28;20038;-64
2023/04/26 06:12:41;;;;;;;1.77;1.35;;;20.00;60.40;;;;;;5020624;28;20137;-66
2023/04/26 06:15:07;;;;;;;1.88;1.30;;;19.90;60.30;;;;;;5021014;28;20040;-66
2023/04/26 06:17:33;;;;;;;2.35;1.40;;;19.90;60.60;;;;;;5019000;28;20140;-65
2023/04/26 06:19:58;;;;;;;2.13;1.17;;;19.80;60.50;;;;;;5017325;28;20096;-65
2023/04/26 06:22:24;;;;;;;2.35;1.70;;;19.80;60.60;;;;;;5019310;28;20120;-65
2023/04/26 06:24:50;;;;;;;2.60;1.67;;;19.80;60.60;;;;;;5017371;28;20036;-66
2023/04/26 06:27:15;;;;;;;2.20;1.60;;;19.80;60.70;;;;;;5016959;28;20109;-65
2023/04/26 06:29:42;;;;;;;7.32;1.70;;;19.80;60.80;;;;;;5015074;28;20045;-65
2023/04/26 06:32:08;;;;;;;3.15;1.48;;;19.80;60.60;;;;;;5014773;28;20275;-66
2023/04/26 06:34:33;;;;;;;3.30;1.88;;;19.80;60.60;;;;;;5010349;28;20042;-65
2023/04/26 06:36:59;;;;;;;3.47;2.10;;;19.70;60.80;;;;;;5012389;28;20159;-65
2023/04/26 06:39:24;;;;;;;6.22;2.40;;;19.70;60.60;;;;;;5014979;28;20030;-64
2023/04/26 06:41:50;;;;;;;5.45;2.70;;;19.70;60.40;;;;;;5020995;28;20029;-64
2023/04/26 06:44:15;;;;;;;8.18;3.35;;;19.60;60.40;;;;;;5016307;28;20156;-64
2023/04/26 06:46:41;;;;;;;5.50;3.15;;;19.60;60.40;;;;;;5019782;28;20029;-66
2023/04/26 06:49:07;;;;;;;4.82;2.67;;;19.60;60.30;;;;;;5018215;28;20525;-65
2023/04/26 06:51:32;;;;;;;8.70;3.13;;;19.60;60.30;;;;;;5017289;28;20029;-65
2023/04/26 06:53:59;;;;;;;7.75;3.47;;;19.60;60.40;;;;;;5015771;28;20157;-65
2023/04/26 06:56:25;;;;;;;7.03;4.18;;;19.60;60.40;;;;;;5015187;28;20026;-65
2023/04/26 06:59:04;;;;;;;8.35;3.50;;;19.60;60.50;;;;;;5017555;28;20041;-66
2023/04/26 07:01:32;;;;;;;8.20;3.28;;;19.50;60.30;;;;;;5011249;28;20054;-63
2023/04/26 07:04:00;;;;;;;8.52;3.45;;;19.50;60.40;;;;;;5014308;28;20030;-65
2023/04/26 07:06:26;;;;;;;8.23;3.72;;;19.50;60.30;;;;;;5016215;28;20045;-65
2023/04/26 07:08:51;;;;;;;6.38;3.55;;;19.40;60.10;;;;;;5007832;28;20516;-63
2023/04/26 07:11:17;;;;;;;7.93;3.40;;;19.40;60.20;;;;;;5028052;28;20387;-64
2023/04/26 07:13:43;;;;;;;9.10;3.67;;;19.40;60.20;;;;;;5018439;28;20058;-65
2023/04/26 07:16:08;;;;;;;8.77;3.38;;;19.40;60.20;;;;;;5023435;28;20101;-66
2023/04/26 07:18:34;;;;;;;4.63;3.05;;;19.40;60.20;;;;;;5024603;28;20512;-65
2023/04/26 07:21:00;;;;;;;6.60;3.55;;;19.40;60.20;;;;;;5021060;28;20030;-65
2023/04/26 07:23:25;;;;;;;6.80;2.72;;;19.40;60.20;;;;;;5020999;28;20029;-64
2023/04/26 07:25:51;;;;;;;5.38;2.90;;;19.30;60.20;;;;;;5018361;28;20029;-66
2023/04/26 07:28:16;;;;;;;7.82;3.00;;;19.30;60.20;;;;;;5018555;28;20025;-65
2023/04/26 07:30:42;;;;;;;7.40;3.80;;;19.30;60.20;;;;;;5018438;28;20487;-64
2023/04/26 07:33:08;;;;;;;6.07;2.50;;;19.30;60.10;;;;;;5013119;28;20037;-66
2023/04/26 07:35:34;;;;;;;7.95;3.10;;;19.30;60.10;;;;;;5018938;28;20132;-65
2023/04/26 07:38:00;;;;;;;6.53;2.63;;;19.20;60.00;;;;;;5024227;28;20052;-66
2023/04/26 07:40:28;;;;;;;5.72;2.58;;;19.20;60.10;;;;;;5023187;28;20058;-65
2023/04/26 07:42:53;;;;;;;4.95;2.63;;;19.30;60.20;;;;;;5024146;28;20029;-65
2023/04/26 07:45:19;;;;;;;8.40;3.00;;;19.20;60.20;;;;;;5022181;28;20034;-66
2023/04/26 07:47:44;;;;;;;5.20;2.83;;;19.20;60.30;;;;;;5023156;28;20508;-65
2023/04/26 07:50:10;;;;;;;7.75;3.03;;;19.20;60.40;;;;;;5021337;28;20496;-65
2023/04/26 07:52:36;;;;;;;3.92;2.55;;;19.20;60.40;;;;;;5020381;28;20034;-66
2023/04/26 07:55:01;;;;;;;4.45;2.65;;;19.20;60.60;;;;;;5017805;28;20033;-65
2023/04/26 07:57:27;;;;;;;6.28;2.70;;;19.10;60.30;;;;;;5017110;28;20446;-65
2023/04/26 07:59:52;;;;;;;6.78;2.97;;;19.10;60.40;;;;;;5015531;28;20038;-65
2023/04/26 08:02:18;;;;;;;6.85;2.45;;;19.10;60.60;;;;;;5012754;28;20034;-66
2023/04/26 08:04:51;;;;;;;6.15;2.65;;;19.10;60.60;;;;;;5019922;28;20507;-65
2023/04/26 08:07:17;;;;;;;6.32;2.45;;;19.10;60.70;;;;;;5015066;28;20136;-65
2023/04/26 08:09:43;;;;;;;6.38;2.97;;;19.10;60.60;;;;;;5023587;28;20033;-65
2023/04/26 08:12:10;;;;;;;5.20;2.30;;;19.10;60.60;;;;;;5023338;28;20094;-65
2023/04/26 08:14:37;;;;;;;7.63;3.08;;;19.10;60.70;;;;;;5022027;28;20063;-65
2023/04/26 08:17:03;;;;;;;5.53;2.47;;;19.10;60.60;;;;;;5022071;28;20056;-65
2023/04/26 08:19:31;;;;;;;4.32;2.20;;;19.00;60.60;;;;;;5020937;28;20025;-66
2023/04/26 08:21:57;;;;;;;3.92;2.20;;;19.00;60.60;;;;;;5017771;28;20455;-66
2023/04/26 08:24:22;;;;;;;4.97;2.40;;;19.00;60.60;;;;;;5021751;28;20026;-65
2023/04/26 08:26:48;;;;;;;5.63;2.78;;;19.10;60.70;;;;;;5017439;28;20416;-66
2023/04/26 08:29:14;;;;;;;3.38;1.95;;;19.00;60.50;;;;;;5019158;28;20026;-65
2023/04/26 08:31:40;;;;;;;3.38;1.85;;;19.00;60.80;;;;;;5012793;28;20536;-65
2023/04/26 08:34:07;;;;;;;5.38;2.08;;;19.10;60.10;;;;;;5013910;28;20120;-65
2023/04/26 08:36:37;;;;;;;5.05;2.35;;;19.20;59.70;;;;;;5018787;28;20044;-66
2023/04/26 08:39:03;;;;;;;4.68;2.00;;;19.40;59.30;;;;;;5020321;28;20065;-66
2023/04/26 08:41:34;;;;;;;4.95;2.20;;;19.60;58.70;;;;;;5017909;28;20045;-65
2023/04/26 08:44:03;;;;;;;3.55;2.13;;;19.80;58.40;;;;;;5021720;28;20504;-65
2023/04/26 08:46:32;;;;;;;3.58;2.00;;;20.00;57.90;;;;;;5020904;28;20034;-65
2023/04/26 08:49:19;;;;;;;2.95;1.70;;;20.10;57.70;;;;;;5020181;28;20030;-66
2023/04/26 08:51:46;;;;;;;6.32;1.70;;;20.30;58.10;;;;;;5017834;28;20026;-65
2023/04/26 08:54:12;;;;;;;2.85;1.58;;;20.40;57.20;;;;;;5016796;28;20041;-65
2023/04/26 08:56:40;;;;;;;3.92;1.70;;;20.50;57.10;;;;;;5016391;28;20029;-66
2023/04/26 08:59:07;;;;;;;3.50;1.58;;;20.50;56.80;;;;;;5010235;28;20034;-66
2023/04/26 09:01:33;;;;;;;3.15;1.77;;;20.60;56.90;;;;;;5013300;28;20026;-66
2023/04/26 09:03:59;;;;;;;3.20;1.92;;;20.60;56.70;;;;;;5020315;28;20030;-65
2023/04/26 09:06:27;;;;;;;4.00;1.73;;;20.70;56.70;;;;;;5019790;28;20597;-64
2023/04/26 09:08:54;;;;;;;3.83;2.03;;;20.80;56.70;;;;;;5017866;28;20082;-65
2023/04/26 09:11:20;;;;;;;3.63;2.03;;;20.80;56.60;;;;;;5021280;28;20151;-63
2023/04/26 09:13:45;;;;;;;5.00;1.65;;;20.80;56.60;;;;;;5021971;28;20488;-68
2023/04/26 09:16:11;;;;;;;5.18;1.65;;;21.00;56.50;;;;;;5020295;28;20037;-69
2023/04/26 09:18:48;;;;;;;9.73;1.88;;;21.00;56.20;;;;;;5017851;28;20694;-65
2023/04/26 09:21:16;;;;;;;4.60;2.08;;;21.20;56.00;;;;;;5018253;28;20559;-67
2023/04/26 09:24:00;;;;;;;3.03;1.70;;;21.10;55.90;;;;;;5019316;28;20029;-66
2023/04/26 09:26:26;;;;;;;4.30;2.08;;;21.10;56.50;;;;;;5015818;28;20029;-68
2023/04/26 09:29:11;;;;;;;4.45;1.70;;;21.10;56.60;;;;;;5013584;28;20511;-67
2023/04/26 09:31:42;;;;;;;4.80;1.73;;;21.00;56.60;;;;;;5023313;28;20062;-66
2023/04/26 09:34:09;;;;;;;3.35;1.90;;;21.00;56.30;;;;;;5019386;28;20038;-69
2023/04/26 09:36:51;;;;;;;6.10;1.75;;;20.90;56.70;;;;;;5012783;28;20034;-66
2023/04/26 09:39:33;;;;;;;3.58;1.55;;;20.90;57.00;;;;;;5018242;28;20087;-67
2023/04/26 09:41:58;;;;;;;3.13;1.35;;;20.80;57.10;;;;;;5023277;28;20037;-65
2023/04/26 09:44:25;;;;;;;8.65;1.77;;;20.70;57.30;;;;;;5021025;28;20034;-64
2023/04/26 09:47:08;;;;;;;4.55;1.70;;;20.70;57.30;;;;;;5019493;28;20051;-65
2023/04/26 09:49:47;;;;;;;2.90;1.67;;;20.60;57.30;;;;;;5018051;28;20095;-65
2023/04/26 09:52:14;;;;;;;5.18;1.50;;;20.60;57.40;;;;;;5014950;28;20133;-65
2023/04/26 09:54:47;;;;;;;4.80;1.65;;;20.50;57.40;;;;;;5018157;28;20030;-66
2023/04/26 09:57:15;;;;;;;4.25;1.33;;;20.50;57.50;;;;;;5004127;28;20025;-67
2023/04/26 09:59:51;;;;;;;2.58;1.50;;;20.50;57.40;;;;;;5013307;28;20041;-66
2023/04/26 10:02:22;;;;;;;4.53;1.38;;;20.40;57.50;;;;;;5007018;28;20487;-66
2023/04/26 10:04:54;;;;;;;4.20;1.30;;;20.40;57.60;;;;;;5016675;28;20129;-66
2023/04/26 10:07:21;;;;;;;3.88;1.15;;;20.40;57.70;;;;;;5022109;28;20037;-64
2023/04/26 10:09:47;;;;;;;2.60;1.10;;;20.30;57.60;;;;;;5020748;28;20029;-66
2023/04/26 10:12:15;;;;;;;2.45;1.33;;;20.30;57.70;;;;;;5019493;28;20026;-66
2023/04/26 10:14:43;;;;;;;2.78;1.30;;;20.30;57.70;;;;;;5020384;28;20052;-66
2023/04/26 10:17:10;;;;;;;2.80;1.40;;;20.30;57.70;;;;;;5018632;28;20029;-66
2023/04/26 10:19:37;;;;;;;2.83;1.30;;;20.20;57.60;;;;;;5017001;28;20030;-65
2023/04/26 10:22:24;;;;;;;3.78;1.45;;;20.20;57.50;;;;;;5015849;28;20044;-64
2023/04/26 10:24:52;;;;;;;2.33;1.63;;;20.20;57.50;;;;;;5013487;28;20033;-65
2023/04/26 10:27:43;;;;;;;2.40;1.20;;;20.20;57.60;;;;;;5016282;28;20034;-66
2023/04/26 10:30:18;;;;;;;3.58;1.17;;;20.10;57.50;;;;;;5018131;28;20029;-66
2023/04/26 10:33:07;;;;;;;3.10;1.50;;;20.10;57.50;;;;;;5022451;28;20026;-67
2023/04/26 10:35:36;;;;;;;2.47;0.90;;;20.00;57.50;;;;;;5014425;28;20643;-66
2023/04/26 10:38:11;;;;;;;2.63;1.23;;;20.00;57.30;;;;;;5024510;28;20033;-66
2023/04/26 10:40:38;;;;;;;2.72;1.08;;;20.00;57.40;;;;;;5021681;28;20574;-66
2023/04/26 10:43:10;;;;;;;5.25;1.25;;;20.00;57.50;;;;;;5017374;28;20044;-65
2023/04/26 10:45:36;;;;;;;3.20;1.10;;;19.90;57.30;;;;;;5018491;28;20028;-65
2023/04/26 10:48:30;;;;;;;2.05;1.17;;;19.90;57.30;;;;;;5017110;28;20080;-66
2023/04/26 10:51:00;;;;;;;3.70;1.02;;;19.90;57.20;;;;;;5018617;28;20033;-66
2023/04/26 10:53:26;;;;;;;5.95;0.88;;;19.90;57.40;;;;;;5020006;28;20298;-66
2023/04/26 10:55:53;;;;;;;2.45;1.10;;;19.90;57.30;;;;;;5021549;28;20033;-66
2023/04/26 10:58:34;;;;;;;3.78;1.48;;;19.80;57.20;;;;;;5015274;28;20040;-67
2023/04/26 11:01:13;;;;;;;2.28;1.05;;;19.80;57.10;;;;;;5022407;28;20505;-66
2023/04/26 11:03:44;;;;;;;1.98;1.10;;;19.80;57.00;;;;;;5022788;28;20737;-66
2023/04/26 11:06:14;;;;;;;4.25;1.10;;;19.80;57.10;;;;;;5010816;28;20041;-66
2023/04/26 11:08:39;;;;;;;3.00;1.10;;;19.70;56.90;;;;;;5024771;28;20025;-67
2023/04/26 11:11:09;;;;;;;2.05;0.93;;;19.70;56.90;;;;;;5022995;28;20452;-66
2023/04/26 11:13:36;;;;;;;2.92;1.00;;;19.70;56.90;;;;;;5024039;28;20064;-65
2023/04/26 11:16:04;;;;;;;2.35;1.10;;;19.70;57.00;;;;;;5023898;28;20033;-66
2023/04/26 11:18:34;;;;;;;4.93;1.15;;;19.70;56.90;;;;;;5020043;28;20036;-66
2023/04/26 11:21:00;;;;;;;2.10;1.25;;;19.60;56.80;;;;;;5018884;28;20088;-66
2023/04/26 11:23:27;;;;;;;1.33;1.00;;;19.60;56.80;;;;;;5020204;28;20503;-66
2023/04/26 11:25:56;;;;;;;2.70;1.30;;;19.60;56.80;;;;;;5031755;28;20152;-66
2023/04/26 11:28:22;;;;;;;2.35;1.00;;;19.60;56.90;;;;;;5021320;28;20507;-67
2023/04/26 11:30:50;;;;;;;1.67;0.80;;;19.60;56.90;;;;;;5028837;28;20037;-66
2023/04/26 11:33:18;;;;;;;2.33;1.33;;;19.50;57.00;;;;;;5021168;28;20033;-67
2023/04/26 11:35:46;;;;;;;1.73;0.88;;;19.60;57.00;;;;;;5021473;28;20038;-66
2023/04/26 11:38:12;;;;;;;1.25;0.85;;;19.50;56.90;;;;;;5023236;28;20037;-66
2023/04/26 11:40:38;;;;;;;1.70;1.48;;;19.50;57.00;;;;;;5023569;28;20037;-66
2023/04/26 11:43:04;;;;;;;1.85;1.10;;;19.50;56.90;;;;;;5022570;28;20057;-67
2023/04/26 11:45:34;;;;;;;2.97;1.00;;;19.50;56.90;;;;;;5022394;28;20117;-67
2023/04/26 11:48:01;;;;;;;2.83;1.00;;;19.50;57.00;;;;;;5019361;28;20727;-66
2023/04/26 11:50:28;;;;;;;3.33;1.30;;;19.40;57.00;;;;;;5017145;28;20069;-65
2023/04/26 11:52:55;;;;;;;2.78;1.00;;;19.40;57.10;;;;;;5018954;28;20146;-65
2023/04/26 11:55:27;;;;;;;2.42;1.00;;;19.40;57.00;;;;;;5012084;28;20041;-65
2023/04/26 11:57:53;;;;;;;4.25;1.30;;;19.40;57.10;;;;;;5018168;28;20033;-66
2023/04/26 12:00:20;;;;;;;2.83;1.23;;;19.40;57.10;;;;;;5017056;28;20508;-66
2023/04/26 12:02:46;;;;;;;2.40;0.85;;;19.40;57.10;;;;;;5018554;28;20259;-66
2023/04/26 12:05:26;;;;;;;2.83;0.90;;;19.40;57.20;;;;;;5024149;28;20380;-65
2023/04/26 12:07:56;;;;;;;1.75;1.17;;;19.40;57.20;;;;;;5024120;28;20040;-65
2023/04/26 12:10:28;;;;;;;1.95;0.93;;;19.30;57.20;;;;;;5021605;28;20034;-65
2023/04/26 12:12:58;;;;;;;3.17;1.00;;;19.30;57.10;;;;;;5020419;28;20113;-65
2023/04/26 12:15:27;;;;;;;3.10;0.93;;;19.30;57.10;;;;;;5018254;28;20044;-65
2023/04/26 12:18:00;;;;;;;6.15;1.23;;;19.30;57.10;;;;;;5015696;28;20053;-66
2023/04/26 12:20:27;;;;;;;2.55;1.38;;;19.30;57.10;;;;;;5016740;28;20022;-66
2023/04/26 12:23:00;;;;;;;2.25;0.90;;;19.30;57.20;;;;;;5014858;28;20038;-65
2023/04/26 12:25:26;;;;;;;2.13;1.20;;;19.30;57.20;;;;;;5012708;28;20030;-65
2023/04/26 12:27:52;;;;;;;2.13;1.20;;;19.30;57.30;;;;;;5016397;28;20033;-65
2023/04/26 12:30:18;;;;;;;2.03;1.10;;;19.20;57.20;;;;;;5023616;28;20495;-66
2023/04/26 12:32:43;;;;;;;2.28;0.90;;;19.20;57.30;;;;;;5023435;28;20034;-66
2023/04/26 12:35:09;;;;;;;2.33;0.90;;;19.20;57.30;;;;;;5023573;28;20044;-65
2023/04/26 12:37:34;;;;;;;2.25;1.10;;;19.20;57.30;;;;;;5021211;28;20573;-64
2023/04/26 12:40:00;;;;;;;3.70;1.45;;;19.20;57.30;;;;;;5022795;28;20034;-66
2023/04/26 12:42:25;;;;;;;1.88;1.13;;;19.20;57.30;;;;;;5021484;28;20037;-65
2023/04/26 12:44:51;;;;;;;1.95;0.95;;;19.20;57.30;;;;;;5020842;28;20029;-66
2023/04/26 12:47:17;;;;;;;1.50;0.90;;;19.20;57.40;;;;;;5016595;28;20392;-66
2023/04/26 12:49:42;;;;;;;4.07;0.98;;;19.20;57.20;;;;;;5020230;28;20408;-66
2023/04/26 12:52:08;;;;;;;6.03;1.30;;;19.20;57.40;;;;;;5017809;28;20037;-66